Time;durP1;ratioP1;P1;durP2;ratioP2;P2;SDS_P1;SDS_P2;PMS_P1;PMS_P2;Temp;Humidity;BMP_temperature;BMP_pressure;BME280_temperature;BME280_humidity;BME280_pressure;Samples;Min_cycle;Max_cycle;Signal;HPM_P1;HPM_P2
2022/08/31 00:04:31;;;;;;;4.40;2.78;;;;;;;16.46;78.17;101946.78;5040862;28;20114;-85
2022/08/31 00:06:57;;;;;;;3.97;2.80;;;;;;;16.46;78.17;101953.06;5041314;28;20120;-85
2022/08/31 00:09:22;;;;;;;4.67;3.00;;;;;;;16.45;78.19;101951.38;5042298;28;20916;-85
2022/08/31 00:11:48;;;;;;;8.27;2.90;;;;;;;16.44;78.50;101951.63;5022570;28;20037;-85
2022/08/31 00:14:13;;;;;;;5.20;2.90;;;;;;;16.50;78.00;101950.72;5040796;28;20120;-85
2022/08/31 00:16:41;;;;;;;3.20;2.87;;;;;;;16.50;77.90;101956.22;5041243;28;20041;-86
2022/08/31 00:19:07;;;;;;;3.90;2.90;;;;;;;16.31;78.68;101950.69;5041053;28;20455;-86
2022/08/31 00:21:33;;;;;;;4.20;2.97;;;;;;;16.30;78.96;101962.66;5022761;28;20085;-84
2022/08/31 00:23:58;;;;;;;4.73;3.10;;;;;;;16.22;79.45;101957.47;5041062;28;20037;-86
2022/08/31 00:26:24;;;;;;;7.10;3.07;;;;;;;16.23;79.16;101953.69;5041333;28;20123;-89
2022/08/31 00:28:51;;;;;;;3.83;3.17;;;;;;;16.18;79.71;101951.63;5041406;28;20477;-84
2022/08/31 00:31:16;;;;;;;5.40;3.13;;;;;;;16.20;79.46;101954.16;5023017;28;20287;-86
2022/08/31 00:33:42;;;;;;;5.10;3.07;;;;;;;16.18;79.39;101950.78;5039931;28;20497;-86
2022/08/31 00:36:11;;;;;;;3.10;2.80;;;;;;;16.09;80.08;101957.56;5021689;28;20033;-87
2022/08/31 00:38:37;;;;;;;3.77;2.90;;;;;;;16.15;79.88;101953.97;5041027;28;20033;-87
2022/08/31 00:41:03;;;;;;;5.73;3.27;;;;;;;16.09;80.05;101949.38;5041559;28;20416;-86
2022/08/31 00:43:47;;;;;;;4.30;3.20;;;;;;;16.03;80.59;101946.50;5022970;28;20040;-85
2022/08/31 00:46:16;;;;;;;8.00;3.70;;;;;;;16.01;80.43;101945.03;5040246;28;20399;-86
2022/08/31 00:48:49;;;;;;;5.33;3.30;;;;;;;15.98;80.83;101943.56;5041049;28;20037;-85
2022/08/31 00:51:14;;;;;;;3.50;3.20;;;;;;;15.98;81.07;101949.03;5040724;28;20079;-84
2022/08/31 00:53:40;;;;;;;6.40;3.00;;;;;;;15.98;80.83;101949.03;5041567;28;20126;-86
2022/08/31 00:56:06;;;;;;;5.63;3.13;;;;;;;15.98;80.59;101948.19;5021974;28;20036;-85
2022/08/31 00:58:32;;;;;;;5.23;3.27;;;;;;;15.88;81.13;101942.38;5041071;28;20037;-85
2022/08/31 01:00:59;;;;;;;5.47;3.03;;;;;;;15.91;81.08;101950.13;5040499;28;20044;-87
2022/08/31 01:03:24;;;;;;;3.70;3.07;;;;;;;15.96;80.91;101947.59;5041330;28;20504;-84
2022/08/31 01:05:50;;;;;;;5.87;3.23;;;;;;;15.97;80.79;101941.91;5041959;28;20094;-85
2022/08/31 01:08:16;;;;;;;4.90;3.40;;;;;;;15.92;81.15;101947.19;5044173;28;20036;-86
2022/08/31 01:10:45;;;;;;;5.67;3.00;;;;;;;15.94;80.78;101946.94;5043889;28;20036;-86
2022/08/31 01:13:12;;;;;;;5.00;3.30;;;;;;;15.84;81.28;101939.25;5043133;28;20039;-86
2022/08/31 01:15:43;;;;;;;5.90;3.20;;;;;;;15.77;81.97;101941.16;5026198;28;20040;-87
2022/08/31 01:18:09;;;;;;;5.97;3.37;;;;;;;15.80;81.48;101940.75;5043552;28;20040;-85
2022/08/31 01:21:12;;;;;;;5.80;3.40;;;;;;;15.77;81.75;101943.91;5042526;28;20033;-87
2022/08/31 01:23:41;;;;;;;4.80;3.20;;;;;;;15.74;81.68;101941.59;5024575;28;20408;-87
2022/08/31 01:26:09;;;;;;;4.87;3.03;;;;;;;15.61;82.06;101934.31;4991851;28;20033;-85
2022/08/31 01:28:35;;;;;;;4.43;3.10;;;;;;;15.61;82.49;101942.50;5022923;28;20032;-85
2022/08/31 01:31:13;;;;;;;6.53;3.30;;;;;;;15.63;82.51;101952.16;5024210;28;20531;-84
2022/08/31 01:33:39;;;;;;;4.50;3.30;;;;;;;15.53;83.00;101943.63;5025321;28;20034;-87
2022/08/31 01:36:07;;;;;;;7.37;3.57;;;;;;;15.57;82.66;101944.88;5024187;28;20090;-85
2022/08/31 01:38:34;;;;;;;4.40;3.20;;;;;;;15.60;82.76;101946.28;5024053;28;20123;-87
2022/08/31 01:41:01;;;;;;;5.67;3.33;;;;;;;15.55;82.71;101946.97;5023596;28;20041;-87
2022/08/31 01:43:29;;;;;;;6.97;3.43;;;;;;;15.48;83.27;101940.69;5023707;28;20056;-87
2022/08/31 01:45:54;;;;;;;5.73;3.63;;;;;;;15.47;83.30;101939.00;5023798;28;20621;-86
2022/08/31 01:48:21;;;;;;;5.20;3.70;;;;;;;15.32;83.96;101951.03;5024155;28;20042;-87
2022/08/31 01:50:47;;;;;;;3.67;3.37;;;;;;;15.28;83.80;101947.06;5023839;28;20038;-85
2022/08/31 01:53:13;;;;;;;4.20;3.27;;;;;;;15.35;83.97;101947.03;5024481;28;20044;-84
2022/08/31 01:55:39;;;;;;;4.90;3.33;;;;;;;15.40;83.42;101944.50;5023343;28;20451;-84
2022/08/31 01:58:05;;;;;;;4.50;3.43;;;;;;;15.33;83.72;101947.28;5023096;28;20497;-82
2022/08/31 02:00:31;;;;;;;3.60;3.13;;;;;;;15.38;83.60;101946.63;5023020;28;21400;-87
2022/08/31 02:02:59;;;;;;;4.43;3.33;;;;;;;15.30;84.13;101953.16;5024690;28;20040;-85
2022/08/31 02:05:25;;;;;;;5.60;3.30;;;;;;;15.31;83.77;101945.81;5022889;28;20088;-84
2022/08/31 02:07:51;;;;;;;5.73;3.47;;;;;;;15.34;83.44;101948.94;4991764;28;20045;-85
2022/08/31 02:10:16;;;;;;;5.27;3.53;;;;;;;15.33;83.64;101949.16;5023667;28;20465;-85
2022/08/31 02:12:41;;;;;;;5.67;3.30;;;;;;;15.26;84.01;101940.16;5024073;28;20063;-87
2022/08/31 02:15:08;;;;;;;3.97;3.57;;;;;;;15.23;83.99;101938.72;5024213;28;20069;-85
2022/08/31 02:17:33;;;;;;;3.47;3.17;;;;;;;15.19;84.11;101943.75;5020845;28;20547;-86
2022/08/31 02:20:51;;;;;;;5.00;3.40;;;;;;;15.21;84.09;101956.38;5022683;28;20073;-86
2022/08/31 02:23:17;;;;;;;4.10;3.60;;;;;;;15.13;84.26;101954.69;5042081;28;20049;-85
2022/08/31 02:25:44;;;;;;;5.87;3.60;;;;;;;15.04;84.56;101948.66;5042447;28;20084;-86
2022/08/31 02:28:12;;;;;;;4.87;3.30;;;;;;;15.01;84.62;101944.47;5041878;28;20182;-86
2022/08/31 02:30:39;;;;;;;3.63;3.30;;;;;;;14.95;85.14;101953.50;5025352;28;20032;-86
2022/08/31 02:33:04;;;;;;;6.67;3.40;;;;;;;14.92;85.18;101958.53;5043089;28;20032;-85
2022/08/31 02:35:30;;;;;;;5.70;3.40;;;;;;;14.90;85.11;101963.38;5042948;28;20044;-87
2022/08/31 02:37:55;;;;;;;5.90;3.63;;;;;;;14.87;85.41;101961.91;5042628;28;20037;-85
2022/08/31 02:40:21;;;;;;;5.40;3.50;;;;;;;14.84;85.43;101962.34;5043023;28;20775;-86
2022/08/31 02:42:46;;;;;;;7.93;3.70;;;;;;;14.84;85.38;101965.06;5041368;28;20459;-86
2022/08/31 02:45:11;;;;;;;4.17;3.30;;;;;;;14.78;85.64;101964.03;5044054;28;20123;-87
2022/08/31 02:47:37;;;;;;;3.90;3.37;;;;;;;14.77;85.46;101964.22;5024923;28;20819;-88
2022/08/31 02:50:05;;;;;;;5.03;3.90;;;;;;;14.75;85.67;101956.25;5024332;28;20704;-86
2022/08/31 02:52:30;;;;;;;5.53;3.50;;;;;;;14.72;85.32;101961.31;5042484;28;20028;-87
2022/08/31 02:54:55;;;;;;;4.20;3.50;;;;;;;14.66;85.71;101961.09;5041861;28;20079;-85
2022/08/31 02:57:21;;;;;;;4.77;3.23;;;;;;;14.70;85.58;101964.25;5042249;28;20483;-86
2022/08/31 02:59:47;;;;;;;6.23;3.47;;;;;;;14.64;85.86;101963.19;5043350;28;20036;-86
2022/08/31 03:02:13;;;;;;;4.83;3.57;;;;;;;14.61;85.70;101955.41;5041993;28;20590;-85
2022/08/31 03:04:39;;;;;;;6.80;3.60;;;;;;;14.55;85.97;101956.28;5042301;28;20584;-85
2022/08/31 03:07:04;;;;;;;6.97;3.73;;;;;;;14.52;85.77;101953.94;5041286;28;20033;-86
2022/08/31 03:09:31;;;;;;;5.90;3.77;;;;;;;14.43;85.97;101941.56;5043257;28;20442;-86
2022/08/31 03:11:57;;;;;;;6.07;3.67;;;;;;;14.38;86.29;101939.50;5042272;28;20032;-87
2022/08/31 03:14:22;;;;;;;4.60;3.33;;;;;;;14.48;85.85;101950.81;5042503;28;20465;-86
2022/08/31 03:16:47;;;;;;;7.13;3.90;;;;;;;14.35;86.29;101948.94;5041808;28;20609;-86
2022/08/31 03:19:13;;;;;;;5.13;3.57;;;;;;;14.37;86.37;101946.00;5041834;28;20298;-88
2022/08/31 03:21:38;;;;;;;4.67;3.73;;;;;;;14.26;86.39;101946.63;5026472;28;20088;-85
2022/08/31 03:24:04;;;;;;;4.80;3.83;;;;;;;14.21;86.56;101946.41;5042119;28;20048;-87
2022/08/31 03:26:29;;;;;;;7.23;3.60;;;;;;;14.16;86.75;101950.59;5040773;28;20068;-84
2022/08/31 03:28:55;;;;;;;7.20;3.67;;;;;;;14.12;87.20;101948.50;5041859;28;20040;-86
2022/08/31 03:31:21;;;;;;;6.93;3.67;;;;;;;14.17;86.90;101951.44;5043162;28;20415;-86
2022/08/31 03:33:47;;;;;;;5.97;3.93;;;;;;;14.07;86.98;101951.03;5040192;28;20075;-87
2022/08/31 03:36:14;;;;;;;7.40;3.77;;;;;;;14.05;87.20;101955.81;5041758;28;21363;-86
2022/08/31 03:38:40;;;;;;;6.83;3.50;;;;;;;14.01;86.82;101945.34;5040414;28;20060;-86
2022/08/31 03:41:05;;;;;;;6.83;3.60;;;;;;;14.08;86.71;101956.25;5039799;28;20093;-85
2022/08/31 03:43:30;;;;;;;4.67;3.50;;;;;;;14.02;86.27;101951.66;5042200;28;20417;-88
2022/08/31 03:45:56;;;;;;;6.53;3.47;;;;;;;14.06;86.15;101955.63;5001908;28;20056;-87
2022/08/31 03:48:21;;;;;;;5.70;3.43;;;;;;;13.94;86.46;101955.41;5040340;28;20043;-85
2022/08/31 03:50:47;;;;;;;5.03;3.50;;;;;;;13.91;86.34;101953.09;5039905;28;20047;-85
2022/08/31 03:53:12;;;;;;;4.70;3.17;;;;;;;13.93;86.03;101956.44;5040327;28;20668;-86
2022/08/31 03:55:40;;;;;;;6.53;3.50;;;;;;;13.92;86.42;101960.22;5042030;28;20381;-86
2022/08/31 03:58:07;;;;;;;7.60;3.40;;;;;;;13.93;86.12;101963.78;5040027;28;20032;-84
2022/08/31 04:00:33;;;;;;;6.33;3.27;;;;;;;13.89;85.53;101955.19;5039834;28;20060;-86
2022/08/31 04:02:59;;;;;;;5.57;3.30;;;;;;;13.84;85.22;101960.41;5041854;28;20090;-87
2022/08/31 04:05:33;;;;;;;5.30;3.13;;;;;;;13.83;85.44;101961.44;5041558;28;20037;-85
2022/08/31 04:07:59;;;;;;;8.35;3.20;;;;;;;13.72;85.49;101960.19;5040933;28;20041;-85
2022/08/31 04:10:24;;;;;;;3.40;3.10;;;;;;;13.71;85.17;101957.66;5042243;28;20068;-87
2022/08/31 04:12:49;;;;;;;3.37;2.97;;;;;;;13.75;85.04;101953.47;5041160;28;20040;-85
2022/08/31 04:15:16;;;;;;;3.67;3.10;;;;;;;13.74;85.01;101954.53;5041913;28;20351;-84
2022/08/31 04:17:45;;;;;;;5.03;3.30;;;;;;;13.78;84.28;101963.97;5041291;28;20079;-84
2022/08/31 04:20:11;;;;;;;3.10;2.80;;;;;;;13.79;84.38;101962.91;5040525;28;20124;-84
2022/08/31 04:22:36;;;;;;;4.47;2.90;;;;;;;13.76;84.18;101963.31;5040244;28;20078;-85
2022/08/31 04:25:02;;;;;;;6.27;2.90;;;;;;;13.61;84.55;101961.63;5040677;28;20704;-85
2022/08/31 04:27:28;;;;;;;4.67;3.10;;;;;;;13.64;84.32;101968.53;5040492;28;20060;-86
2022/08/31 04:29:53;;;;;;;2.97;2.70;;;;;;;13.58;84.41;101970.19;5023216;28;20041;-84
2022/08/31 04:32:19;;;;;;;3.43;2.90;;;;;;;13.58;84.07;101964.72;5040257;28;20052;-86
2022/08/31 04:34:45;;;;;;;4.93;3.00;;;;;;;13.58;83.57;101970.19;5039914;28;20765;-85
2022/08/31 04:37:13;;;;;;;4.40;2.83;;;;;;;13.63;83.75;101978.59;5039314;28;20045;-85
2022/08/31 04:39:39;;;;;;;4.50;2.80;;;;;;;13.60;83.02;101973.56;5041390;28;20440;-86
2022/08/31 04:42:05;;;;;;;3.20;2.90;;;;;;;13.56;83.28;101966.84;5040677;28;20043;-84
2022/08/31 04:44:30;;;;;;;6.13;2.73;;;;;;;13.53;82.68;101967.25;5041363;28;20033;-84
2022/08/31 04:46:56;;;;;;;3.10;2.80;;;;;;;13.54;82.53;101968.91;5040743;28;20041;-85
2022/08/31 04:49:21;;;;;;;4.67;2.70;;;;;;;13.60;82.29;101979.00;5040035;28;20170;-85
2022/08/31 04:51:46;;;;;;;5.00;2.90;;;;;;;13.61;81.86;101980.69;5016271;28;20124;-86
2022/08/31 04:54:13;;;;;;;3.63;2.67;;;;;;;13.56;82.69;101983.19;5037965;28;20127;-87
2022/08/31 04:56:42;;;;;;;4.30;2.80;;;;;;;13.55;81.36;101969.78;5023707;28;20025;-86
2022/08/31 04:59:11;;;;;;;2.77;2.57;;;;;;;13.47;81.27;101977.06;5022485;28;20033;-87
2022/08/31 05:01:40;;;;;;;3.73;2.30;;;;;;;13.46;81.29;101983.56;5040928;28;20029;-86
2022/08/31 05:04:06;;;;;;;3.93;2.50;;;;;;;13.38;81.74;101978.28;5021511;28;20032;-85
2022/08/31 05:06:34;;;;;;;3.60;2.57;;;;;;;13.45;81.68;101978.28;5039606;28;20199;-85
2022/08/31 05:09:03;;;;;;;4.10;2.53;;;;;;;13.40;81.57;101978.91;5040373;28;22131;-83
2022/08/31 05:11:29;;;;;;;4.23;2.80;;;;;;;13.40;81.29;101978.09;5039691;28;20215;-83
2022/08/31 05:14:13;;;;;;;6.60;2.87;;;;;;;13.40;81.33;101975.38;5040375;28;20033;-85
2022/08/31 05:16:40;;;;;;;4.18;2.40;;;;;;;13.34;80.66;101977.81;5040538;28;20033;-86
2022/08/31 05:19:06;;;;;;;3.23;2.50;;;;;;;13.32;81.33;101988.06;5022393;28;20209;-85
2022/08/31 05:21:34;;;;;;;2.97;2.60;;;;;;;13.29;80.69;101974.84;5041062;28;20081;-87
2022/08/31 05:24:06;;;;;;;3.63;2.60;;;;;;;13.30;80.81;101983.84;5039801;28;20566;-85
2022/08/31 05:26:35;;;;;;;3.80;2.43;;;;;;;13.33;80.54;101980.75;5040236;28;20132;-84
2022/08/31 05:29:04;;;;;;;3.47;2.50;;;;;;;13.26;80.34;101994.31;5040109;28;20130;-86
2022/08/31 05:31:30;;;;;;;4.77;2.57;;;;;;;13.28;79.74;102003.09;5040039;28;20047;-83
2022/08/31 05:33:57;;;;;;;4.27;2.37;;;;;;;13.32;79.60;101995.41;5039464;28;20786;-86
2022/08/31 05:36:22;;;;;;;3.30;2.30;;;;;;;13.34;79.14;101996.88;5040689;28;20111;-86
2022/08/31 05:38:48;;;;;;;3.83;2.40;;;;;;;13.37;79.76;101998.38;5040255;28;20041;-84
2022/08/31 05:41:14;;;;;;;3.53;2.40;;;;;;;13.41;78.66;101996.06;5038584;28;20044;-86
2022/08/31 05:43:39;;;;;;;2.40;2.20;;;;;;;13.38;79.07;102000.06;5040506;28;20193;-86
2022/08/31 05:46:09;;;;;;;5.47;2.30;;;;;;;13.46;79.56;102004.47;5039353;28;20618;-86
2022/08/31 05:48:36;;;;;;;6.13;2.50;;;;;;;13.44;78.87;102001.13;5038097;28;20048;-86
2022/08/31 05:51:07;;;;;;;3.03;2.30;;;;;;;13.55;79.14;102002.44;5040602;28;20080;-86
2022/08/31 05:53:34;;;;;;;4.77;2.50;;;;;;;13.56;78.04;102006.81;5042208;28;20082;-86
2022/08/31 05:56:03;;;;;;;3.60;2.43;;;;;;;13.66;77.49;102005.41;5028543;28;20068;-86
2022/08/31 05:58:30;;;;;;;4.90;2.37;;;;;;;13.64;77.34;101998.47;5043136;28;20732;-86
2022/08/31 06:00:55;;;;;;;2.73;2.20;;;;;;;13.74;77.09;102006.28;5044020;28;20040;-84
2022/08/31 06:03:21;;;;;;;3.10;2.20;;;;;;;13.77;76.48;102000.41;5043532;28;20506;-84
2022/08/31 06:05:49;;;;;;;4.57;2.33;;;;;;;13.83;76.36;101999.59;5043792;28;20037;-86
2022/08/31 06:08:15;;;;;;;5.33;2.50;;;;;;;13.88;75.85;102007.97;5043179;28;20075;-86
2022/08/31 06:10:40;;;;;;;4.27;2.23;;;;;;;13.84;75.79;102002.13;5041996;28;20098;-83
2022/08/31 06:13:05;;;;;;;3.90;2.20;;;;;;;13.97;75.64;102014.94;5042430;28;20040;-84
2022/08/31 06:15:31;;;;;;;3.03;2.30;;;;;;;14.04;75.67;102008.66;5042434;28;20392;-85
2022/08/31 06:17:56;;;;;;;2.83;2.20;;;;;;;14.11;75.24;102017.69;5041075;28;20045;-84
2022/08/31 06:20:21;;;;;;;4.67;2.20;;;;;;;14.15;73.81;102013.50;5043920;28;20473;-84
2022/08/31 06:22:47;;;;;;;3.67;2.20;;;;;;;14.24;74.41;102020.44;5041215;28;20503;-82
2022/08/31 06:25:17;;;;;;;2.40;2.17;;;;;;;14.30;74.25;102011.41;5042977;28;20032;-85
2022/08/31 06:27:43;;;;;;;2.30;2.10;;;;;;;14.30;73.15;102008.69;5042043;28;20024;-85
2022/08/31 06:30:09;;;;;;;3.67;2.30;;;;;;;14.39;72.96;102012.06;5024426;28;20463;-85
2022/08/31 06:32:35;;;;;;;5.90;2.20;;;;;;;14.44;72.46;102014.16;5043331;28;20059;-83
2022/08/31 06:35:00;;;;;;;3.87;2.20;;;;;;;14.46;72.63;102020.25;5042006;28;20392;-82
2022/08/31 06:37:26;;;;;;;4.53;2.07;;;;;;;14.55;71.18;102027.19;5042707;28;20094;-81
2022/08/31 06:39:52;;;;;;;2.73;1.90;;;;;;;14.49;71.30;102028.84;5011499;28;20039;-82
2022/08/31 06:42:18;;;;;;;3.43;1.90;;;;;;;14.52;71.94;102041.22;5042942;28;20697;-82
2022/08/31 06:44:44;;;;;;;3.60;2.47;;;;;;;14.52;71.33;102038.50;5042584;28;20025;-82
2022/08/31 06:47:09;;;;;;;3.10;2.10;;;;;;;14.72;71.86;102040.44;5042654;28;20306;-82
2022/08/31 06:49:35;;;;;;;4.53;2.27;;;;;;;14.92;71.25;102046.72;5042556;28;20973;-82
2022/08/31 06:52:00;;;;;;;2.50;2.07;;;;;;;15.00;70.16;102040.16;5042471;28;20037;-82
2022/08/31 06:54:26;;;;;;;3.03;1.93;;;;;;;15.21;70.62;102041.81;5042749;28;20044;-82
2022/08/31 06:56:52;;;;;;;3.23;2.00;;;;;;;15.19;68.61;102044.78;5042804;28;20051;-85
2022/08/31 06:59:17;;;;;;;3.10;1.90;;;;;;;15.42;68.89;102048.91;5042426;28;20409;-82
2022/08/31 07:01:43;;;;;;;4.90;2.20;;;;;;;15.34;67.82;102052.72;5042557;28;20033;-83
2022/08/31 07:04:09;;;;;;;5.03;2.27;;;;;;;15.35;67.06;102057.13;5041159;28;20040;-82
2022/08/31 07:06:50;;;;;;;5.67;2.10;;;;;;;15.38;67.32;102061.34;5042296;28;20090;-82
2022/08/31 07:09:17;;;;;;;3.77;2.00;;;;;;;15.41;68.08;102062.75;5041599;28;20033;-81
2022/08/31 07:11:45;;;;;;;4.47;2.17;;;;;;;15.46;66.84;102061.09;5043025;28;20037;-83
2022/08/31 07:14:14;;;;;;;4.60;2.10;;;;;;;15.60;67.03;102059.16;5042679;28;20145;-83
2022/08/31 07:16:41;;;;;;;5.77;2.30;;;;;;;15.76;67.13;102062.44;5042442;28;20037;-82
2022/08/31 07:19:07;;;;;;;4.50;1.97;;;;;;;15.66;66.76;102058.28;5042024;28;20837;-83
2022/08/31 07:21:37;;;;;;;5.27;2.13;;;;;;;15.53;66.58;102053.72;5041743;28;20080;-82
2022/08/31 07:24:06;;;;;;;4.40;2.10;;;;;;;15.63;66.93;102058.72;5023773;28;20559;-81
2022/08/31 07:26:36;;;;;;;6.83;2.27;;;;;;;15.73;67.34;102065.63;5024778;28;20028;-82
2022/08/31 07:29:05;;;;;;;3.63;2.10;;;;;;;15.72;66.83;102067.53;5042532;28;20487;-82
2022/08/31 07:31:39;;;;;;;2.80;2.17;;;;;;;15.64;67.04;102071.31;5041221;28;20554;-82
2022/08/31 07:34:09;;;;;;;5.00;2.28;;;;;;;15.47;66.96;102059.19;5041731;28;20571;-83
2022/08/31 07:42:07;;;;;;;3.27;2.23;;;;;;;15.51;68.42;102063.16;5041598;28;20392;-86
2022/08/31 07:42:08;;;;;;;4.85;2.33;;;;;;;15.84;68.77;102057.63;5041044;28;20551;-85
2022/08/31 07:44:33;;;;;;;4.63;2.50;;;;;;;16.04;66.88;102073.06;5024853;28;20076;-85
2022/08/31 07:46:59;;;;;;;3.33;2.27;;;;;;;16.08;66.53;102070.75;5041130;28;20472;-84
2022/08/31 07:49:25;;;;;;;4.70;2.20;;;;;;;16.20;66.77;102074.44;5023411;28;20036;-83
2022/08/31 07:51:50;;;;;;;3.00;2.00;;;;;;;16.26;67.07;102053.59;5042201;28;20041;-85
2022/08/31 07:54:21;;;;;;;2.93;2.30;;;;;;;16.35;66.39;102066.78;5040943;28;20039;-85
2022/08/31 07:57:02;;;;;;;4.87;2.10;;;;;;;16.62;66.16;102072.06;5041595;28;20032;-86
2022/08/31 07:59:29;;;;;;;4.93;2.47;;;;;;;16.40;65.44;102073.47;5041799;28;20035;-85
2022/08/31 08:01:55;;;;;;;7.93;2.40;;;;;;;16.46;65.59;102075.34;5041305;28;20089;-87
2022/08/31 08:04:24;;;;;;;3.47;2.30;;;;;;;16.53;65.61;102071.47;5041237;28;20037;-84
2022/08/31 08:06:55;;;;;;;5.73;2.50;;;;;;;16.63;65.24;102079.22;5041441;28;20025;-86
2022/08/31 08:09:26;;;;;;;2.60;2.40;;;;;;;16.61;65.20;102073.13;5040513;28;20044;-88
2022/08/31 08:11:53;;;;;;;4.07;2.60;;;;;;;16.84;65.49;102064.28;5041960;28;20040;-85
2022/08/31 08:14:20;;;;;;;3.77;2.73;;;;;;;16.78;65.19;102073.41;5040705;28;20086;-86
2022/08/31 08:16:45;;;;;;;2.77;2.43;;;;;;;17.01;65.56;102074.69;5040582;28;20060;-87
2022/08/31 08:19:10;;;;;;;7.20;2.43;;;;;;;17.19;65.40;102074.75;5041054;28;20477;-86
2022/08/31 08:21:36;;;;;;;5.87;2.30;;;;;;;17.58;65.79;102074.50;5041042;28;20139;-85
2022/08/31 08:24:02;;;;;;;4.30;2.50;;;;;;;17.66;63.26;102076.94;5040990;28;20136;-81
2022/08/31 08:26:27;;;;;;;4.20;2.30;;;;;;;17.93;63.20;102073.09;5041757;28;20484;-84
2022/08/31 08:28:53;;;;;;;3.87;2.60;;;;;;;18.16;62.73;102064.94;5040550;28;20059;-85
2022/08/31 08:31:23;;;;;;;4.97;2.50;;;;;;;18.09;61.95;102082.56;5041210;28;20039;-87
2022/08/31 08:33:50;;;;;;;5.03;2.45;;;;;;;18.00;61.35;102082.06;5039067;28;20092;-88
2022/08/31 08:36:18;;;;;;;5.40;2.50;;;;;;;18.10;61.27;102074.13;5040922;28;20064;-87
2022/08/31 08:38:46;;;;;;;7.03;2.60;;;;;;;18.30;60.62;102075.72;5040350;28;20749;-87
2022/08/31 08:41:18;;;;;;;2.65;2.45;;;;;;;18.46;61.08;102075.03;5040415;28;20106;-83
2022/08/31 08:43:47;;;;;;;3.20;2.40;;;;;;;18.66;60.42;102080.22;5040580;28;20768;-88
2022/08/31 08:46:14;;;;;;;4.55;2.60;;;;;;;18.26;60.55;102088.22;5041129;28;20028;-83
2022/08/31 08:48:42;;;;;;;5.00;2.60;;;;;;;18.14;61.46;102083.56;5040269;28;20037;-83
2022/08/31 08:51:15;;;;;;;4.70;2.70;;;;;;;18.27;62.03;102077.03;5025883;28;20025;-87
2022/08/31 08:53:43;;;;;;;9.32;2.83;;;;;;;18.63;61.10;102085.34;5017823;28;20132;-86
2022/08/31 08:56:11;;;;;;;4.65;2.80;;;;;;;18.59;60.46;102079.50;5041419;28;20041;-88
2022/08/31 08:58:43;;;;;;;2.75;2.55;;;;;;;18.95;60.12;102080.41;5040612;28;20085;-85
2022/08/31 09:01:14;;;;;;;3.13;2.63;;;;;;;18.98;60.11;102068.94;5040513;28;20051;-86
2022/08/31 09:04:03;;;;;;;3.28;2.72;;;;;;;19.28;59.52;102070.72;5056194;28;20032;-87
2022/08/31 09:06:52;;;;;;;5.03;2.75;;;;;;;19.23;58.59;102067.88;5040820;28;20029;-84
2022/08/31 09:09:56;;;;;;;4.35;2.53;;;;;;;19.25;59.21;102075.88;5040430;28;20497;-84
2022/08/31 09:12:45;;;;;;;7.32;2.95;;;;;;;19.36;59.29;102073.09;5040060;28;20044;-88
2022/08/31 09:15:47;;;;;;;3.95;2.72;;;;;;;19.53;59.41;102072.38;5040727;28;20033;-88
2022/08/31 09:18:25;;;;;;;6.00;2.90;;;;;;;19.60;59.49;102084.06;5038585;28;20051;-84
2022/08/31 09:21:20;;;;;;;6.22;3.20;;;;;;;19.77;58.41;102081.38;5040014;28;20024;-86
2022/08/31 09:24:09;;;;;;;3.50;2.83;;;;;;;20.13;57.06;102081.28;5039593;28;20041;-86
2022/08/31 09:27:16;;;;;;;5.25;2.97;;;;;;;19.77;58.36;102086.03;5041169;28;20037;-89
2022/08/31 09:29:43;;;;;;;7.63;3.50;;;;;;;19.15;59.19;102071.00;5044378;28;20261;-87
2022/08/31 09:32:15;;;;;;;4.15;3.17;;;;;;;19.40;59.00;102078.94;5044419;28;20068;-86
2022/08/31 09:34:41;;;;;;;7.13;3.20;;;;;;;19.91;58.75;102084.72;5043607;28;20061;-88
2022/08/31 09:37:10;;;;;;;5.32;3.25;;;;;;;20.19;57.77;102077.53;5044448;28;20163;-89
2022/08/31 09:39:36;;;;;;;7.38;3.17;;;;;;;20.61;56.88;102077.19;5044606;28;20121;-86
2022/08/31 09:42:13;;;;;;;5.90;3.40;;;;;;;20.49;57.24;102074.50;5042330;28;20036;-85
2022/08/31 09:44:45;;;;;;;5.80;3.33;;;;;;;20.35;57.16;102078.66;5043788;28;20033;-86
2022/08/31 09:47:41;;;;;;;5.18;2.90;;;;;;;20.47;58.32;102075.84;5043737;28;20540;-87
2022/08/31 09:50:27;;;;;;;4.47;2.78;;;;;;;20.87;57.63;102083.13;5043984;28;20680;-84
2022/08/31 09:56:14;;;;;;;5.40;3.40;;;;;;;21.29;56.04;102074.38;5044102;28;20325;-85
2022/08/31 09:58:46;;;;;;;6.53;3.58;;;;;;;21.02;54.86;102072.34;5043993;28;20119;-90
2022/08/31 10:01:32;;;;;;;7.40;3.35;;;;;;;21.14;56.30;102077.75;5044488;28;20780;-89
2022/08/31 10:04:07;;;;;;;8.35;3.60;;;;;;;20.94;56.65;102075.53;5042651;28;20127;-89
2022/08/31 10:06:52;;;;;;;6.90;3.20;;;;;;;21.54;55.42;102068.44;5044204;28;20123;-92
2022/08/31 10:09:27;;;;;;;4.15;3.40;;;;;;;21.73;55.35;102066.19;5043401;28;20587;-92
2022/08/31 10:11:56;;;;;;;8.10;3.70;;;;;;;20.89;55.39;102069.97;5044232;28;20107;-85
2022/08/31 10:14:29;;;;;;;8.07;3.50;;;;;;;20.68;57.01;102066.00;5043154;28;20060;-87
2022/08/31 10:17:27;;;;;;;5.95;3.40;;;;;;;20.80;56.98;102064.03;5044114;28;20068;-89
2022/08/31 10:20:04;;;;;;;5.35;3.58;;;;;;;21.22;56.64;102059.97;5043287;28;20040;-84
2022/08/31 10:22:40;;;;;;;5.75;3.55;;;;;;;21.36;55.96;102066.75;5053311;28;20060;-84
2022/08/31 10:25:19;;;;;;;4.55;3.60;;;;;;;21.28;55.75;102052.59;5061580;28;20071;-87
2022/08/31 10:28:13;;;;;;;7.32;3.45;;;;;;;21.51;56.63;102054.28;5062837;28;20552;-89
2022/08/31 10:30:51;;;;;;;7.50;3.63;;;;;;;21.67;56.12;102056.16;5045072;28;20040;-87
2022/08/31 10:35:01;;;;;;;5.28;3.80;;;;;;;21.67;55.97;102056.16;5062833;28;20294;-87
2022/08/31 10:36:14;;;;;;;7.93;4.25;;;;;;;21.82;54.71;102050.00;5062546;28;20047;-91
2022/08/31 10:38:44;;;;;;;7.30;3.72;;;;;;;22.43;56.38;102049.78;5061762;28;20496;-85
2022/08/31 10:41:15;;;;;;;8.80;3.88;;;;;;;22.45;53.44;102054.22;5064031;28;20073;-90
2022/08/31 10:44:22;;;;;;;7.28;3.85;;;;;;;22.04;54.15;102049.94;5062586;28;20032;-85
2022/08/31 10:46:53;;;;;;;8.88;3.90;;;;;;;21.90;54.86;102045.94;5063478;28;20075;-85
2022/08/31 10:49:19;;;;;;;5.22;3.50;;;;;;;21.88;55.18;102045.34;5061985;28;20072;-87
2022/08/31 10:52:01;;;;;;;4.32;3.40;;;;;;;22.03;55.06;102042.78;5063585;28;20472;-87
2022/08/31 10:55:06;;;;;;;7.35;3.78;;;;;;;22.07;54.26;102049.44;5044389;28;20047;-88
2022/08/31 10:57:49;;;;;;;5.35;3.88;;;;;;;21.87;54.11;102032.69;5021432;28;20055;-84
2022/08/31 11:03:41;;;;;;;5.80;3.45;;;;;;;22.51;54.42;102042.16;5062344;28;20146;-88
2022/08/31 11:06:28;;;;;;;5.93;3.50;;;;;;;22.64;53.38;102035.31;5062306;28;20101;-88
2022/08/31 11:08:56;;;;;;;5.70;3.55;;;;;;;22.68;52.69;102042.81;5061993;28;20131;-85
2022/08/31 11:11:34;;;;;;;5.53;3.30;;;;;;;23.00;53.19;102044.69;5062570;28;20067;-90
2022/08/31 11:14:21;;;;;;;4.68;3.10;;;;;;;23.20;52.23;102037.66;5061031;28;20122;-87
2022/08/31 11:17:17;;;;;;;7.18;3.60;;;;;;;22.84;52.52;102049.28;5063020;28;20731;-84
2022/08/31 11:20:07;;;;;;;6.68;3.40;;;;;;;22.56;53.49;102039.41;5060969;28;20310;-85
2022/08/31 11:23:25;;;;;;;6.97;3.58;;;;;;;22.42;54.12;102042.63;5062568;28;20052;-87
2022/08/31 11:26:12;;;;;;;4.90;3.55;;;;;;;22.00;54.40;102036.94;5017774;28;20641;-86
2022/08/31 11:29:01;;;;;;;6.05;3.80;;;;;;;22.04;55.08;102038.91;5062624;28;20036;-84
2022/08/31 11:31:32;;;;;;;5.95;3.67;;;;;;;22.35;55.05;102039.22;5062146;28;20040;-84
2022/08/31 11:34:07;;;;;;;7.18;3.50;;;;;;;22.73;52.58;102026.28;5061374;28;20529;-84
2022/08/31 11:36:40;;;;;;;4.35;3.13;;;;;;;22.75;53.30;102035.16;5060935;28;20036;-85
2022/08/31 11:39:05;;;;;;;6.68;3.40;;;;;;;22.88;52.59;102024.72;5061618;28;20036;-84
2022/08/31 11:41:47;;;;;;;5.03;3.53;;;;;;;22.90;52.42;102030.81;5062662;28;20093;-83
2022/08/31 11:44:30;;;;;;;8.88;3.72;;;;;;;22.86;52.87;102027.75;5061129;28;20036;-84
2022/08/31 11:47:23;;;;;;;5.78;3.28;;;;;;;23.21;52.71;102022.72;5061843;28;20028;-89
2022/08/31 11:49:50;;;;;;;4.55;3.35;;;;;;;23.63;51.63;102019.03;5058769;28;20039;-88
2022/08/31 11:55:50;;;;;;;7.40;3.45;;;;;;;23.68;50.17;102026.53;5061360;28;20070;-89